sensor_id;sensor_type;location;lat;lon;timestamp;temperature;humidity
67358;HTU21D;54240;51.096;5.878;2023-02-28T00:00:30;1.03;-6.00
67358;HTU21D;54240;51.096;5.878;2023-02-28T00:02:57;1.02;-6.00
67358;HTU21D;54240;51.096;5.878;2023-02-28T00:05:25;0.99;-6.00
67358;HTU21D;54240;51.096;5.878;2023-02-28T00:07:52;0.98;-6.00
67358;HTU21D;54240;51.096;5.878;2023-02-28T00:10:21;0.99;-6.00
67358;HTU21D;54240;51.096;5.878;2023-02-28T00:12:52;0.97;-6.00
67358;HTU21D;54240;51.096;5.878;2023-02-28T00:15:18;0.87;-6.00
67358;HTU21D;54240;51.096;5.878;2023-02-28T00:17:44;0.81;-6.00
67358;HTU21D;54240;51.096;5.878;2023-02-28T00:20:12;0.88;-6.00
67358;HTU21D;54240;51.096;5.878;2023-02-28T00:22:43;0.80;-6.00
67358;HTU21D;54240;51.096;5.878;2023-02-28T00:25:11;0.77;-6.00
67358;HTU21D;54240;51.096;5.878;2023-02-28T00:27:39;0.74;-6.00
67358;HTU21D;54240;51.096;5.878;2023-02-28T00:30:07;0.73;-4.89
67358;HTU21D;54240;51.096;5.878;2023-02-28T00:32:35;0.66;-4.14
67358;HTU21D;54240;51.096;5.878;2023-02-28T00:35:03;0.63;9.59
67358;HTU21D;54240;51.096;5.878;2023-02-28T00:37:30;0.57;22.98
67358;HTU21D;54240;51.096;5.878;2023-02-28T00:39:56;0.60;17.49
67358;HTU21D;54240;51.096;5.878;2023-02-28T00:42:22;0.54;23.46
67358;HTU21D;54240;51.096;5.878;2023-02-28T00:44:48;0.55;25.80
67358;HTU21D;54240;51.096;5.878;2023-02-28T00:47:14;0.54;32.86
67358;HTU21D;54240;51.096;5.878;2023-02-28T00:49:40;0.52;33.40
67358;HTU21D;54240;51.096;5.878;2023-02-28T00:52:08;0.51;37.65
67358;HTU21D;54240;51.096;5.878;2023-02-28T00:54:35;0.55;33.99
67358;HTU21D;54240;51.096;5.878;2023-02-28T00:57:01;0.54;34.18
67358;HTU21D;54240;51.096;5.878;2023-02-28T00:59:27;0.53;36.12
67358;HTU21D;54240;51.096;5.878;2023-02-28T01:01:53;0.52;31.32
67358;HTU21D;54240;51.096;5.878;2023-02-28T01:04:18;0.48;40.94
67358;HTU21D;54240;51.096;5.878;2023-02-28T01:06:44;0.46;41.43
67358;HTU21D;54240;51.096;5.878;2023-02-28T01:09:11;0.43;46.38
67358;HTU21D;54240;51.096;5.878;2023-02-28T01:11:37;0.42;44.62
67358;HTU21D;54240;51.096;5.878;2023-02-28T01:14:04;0.35;56.86
67358;HTU21D;54240;51.096;5.878;2023-02-28T01:16:31;0.34;56.02
67358;HTU21D;54240;51.096;5.878;2023-02-28T01:18:57;0.34;58.91
67358;HTU21D;54240;51.096;5.878;2023-02-28T01:21:23;0.34;58.74
67358;HTU21D;54240;51.096;5.878;2023-02-28T01:23:50;0.33;59.64
67358;HTU21D;54240;51.096;5.878;2023-02-28T01:26:19;0.30;63.50
67358;HTU21D;54240;51.096;5.878;2023-02-28T01:28:46;0.34;62.41
67358;HTU21D;54240;51.096;5.878;2023-02-28T01:31:12;0.32;69.55
67358;HTU21D;54240;51.096;5.878;2023-02-28T01:33:39;0.30;68.91
67358;HTU21D;54240;51.096;5.878;2023-02-28T01:38:35;0.30;66.86
67358;HTU21D;54240;51.096;5.878;2023-02-28T01:41:01;0.30;65.52
67358;HTU21D;54240;51.096;5.878;2023-02-28T01:43:29;0.25;69.74
67358;HTU21D;54240;51.096;5.878;2023-02-28T01:45:57;0.21;71.87
67358;HTU21D;54240;51.096;5.878;2023-02-28T01:48:27;0.19;76.18
67358;HTU21D;54240;51.096;5.878;2023-02-28T01:51:00;0.14;83.02
67358;HTU21D;54240;51.096;5.878;2023-02-28T01:53:33;0.13;82.33
67358;HTU21D;54240;51.096;5.878;2023-02-28T01:56:04;0.08;85.76
67358;HTU21D;54240;51.096;5.878;2023-02-28T01:58:32;0.07;90.44
67358;HTU21D;54240;51.096;5.878;2023-02-28T02:00:58;0.06;89.72
67358;HTU21D;54240;51.096;5.878;2023-02-28T02:03:26;0.01;102.07
67358;HTU21D;54240;51.096;5.878;2023-02-28T02:05:52;-0.00;104.73
67358;HTU21D;54240;51.096;5.878;2023-02-28T02:08:23;-0.01;104.76
67358;HTU21D;54240;51.096;5.878;2023-02-28T02:10:56;-0.01;101.81
67358;HTU21D;54240;51.096;5.878;2023-02-28T02:21:43;-0.13;115.01
67358;HTU21D;54240;51.096;5.878;2023-02-28T02:24:54;-0.16;117.86
67358;HTU21D;54240;51.096;5.878;2023-02-28T02:35:35;-0.23;118.99
67358;HTU21D;54240;51.096;5.878;2023-02-28T02:41:45;-0.25;118.99
67358;HTU21D;54240;51.096;5.878;2023-02-28T02:43:51;-0.25;118.99
67358;HTU21D;54240;51.096;5.878;2023-02-28T02:46:35;-0.29;118.99
67358;HTU21D;54240;51.096;5.878;2023-02-28T02:49:09;-0.28;118.99
67358;HTU21D;54240;51.096;5.878;2023-02-28T02:51:38;-0.31;118.99
67358;HTU21D;54240;51.096;5.878;2023-02-28T02:54:29;-0.34;118.99
67358;HTU21D;54240;51.096;5.878;2023-02-28T02:57:01;-0.38;118.99
67358;HTU21D;54240;51.096;5.878;2023-02-28T02:59:30;-0.32;118.99
67358;HTU21D;54240;51.096;5.878;2023-02-28T03:02:01;-0.39;118.99
67358;HTU21D;54240;51.096;5.878;2023-02-28T03:04:35;-0.42;118.99
67358;HTU21D;54240;51.096;5.878;2023-02-28T03:07:04;-0.51;118.99
67358;HTU21D;54240;51.096;5.878;2023-02-28T03:09:33;-0.44;118.99
67358;HTU21D;54240;51.096;5.878;2023-02-28T03:12:02;-0.46;118.99
67358;HTU21D;54240;51.096;5.878;2023-02-28T03:17:09;-0.46;118.99
67358;HTU21D;54240;51.096;5.878;2023-02-28T03:27:42;-0.45;118.99
67358;HTU21D;54240;51.096;5.878;2023-02-28T03:30:35;-0.43;118.99
67358;HTU21D;54240;51.096;5.878;2023-02-28T03:33:10;-0.42;118.99
67358;HTU21D;54240;51.096;5.878;2023-02-28T03:35:52;-0.39;118.99
67358;HTU21D;54240;51.096;5.878;2023-02-28T03:38:35;-0.39;118.99
67358;HTU21D;54240;51.096;5.878;2023-02-28T03:41:19;-0.41;118.99
67358;HTU21D;54240;51.096;5.878;2023-02-28T03:43:55;-0.46;118.99
67358;HTU21D;54240;51.096;5.878;2023-02-28T03:46:28;-0.44;118.99
67358;HTU21D;54240;51.096;5.878;2023-02-28T03:49:06;-0.47;118.99
67358;HTU21D;54240;51.096;5.878;2023-02-28T03:51:35;-0.51;118.99
67358;HTU21D;54240;51.096;5.878;2023-02-28T03:54:29;-0.52;118.99
67358;HTU21D;54240;51.096;5.878;2023-02-28T04:00:20;-0.67;118.99
67358;HTU21D;54240;51.096;5.878;2023-02-28T04:02:46;-0.68;118.99
67358;HTU21D;54240;51.096;5.878;2023-02-28T04:05:19;-0.71;118.99
67358;HTU21D;54240;51.096;5.878;2023-02-28T04:07:45;-0.71;118.99
67358;HTU21D;54240;51.096;5.878;2023-02-28T04:10:13;-0.74;118.99
67358;HTU21D;54240;51.096;5.878;2023-02-28T04:12:38;-0.74;118.99
67358;HTU21D;54240;51.096;5.878;2023-02-28T04:15:05;-0.82;118.99
67358;HTU21D;54240;51.096;5.878;2023-02-28T04:17:31;-0.76;118.99
67358;HTU21D;54240;51.096;5.878;2023-02-28T04:19:56;-0.82;118.99
67358;HTU21D;54240;51.096;5.878;2023-02-28T04:22:23;-0.82;118.99
67358;HTU21D;54240;51.096;5.878;2023-02-28T04:24:52;-0.85;118.99
67358;HTU21D;54240;51.096;5.878;2023-02-28T04:27:20;-0.83;118.99
67358;HTU21D;54240;51.096;5.878;2023-02-28T04:29:47;-0.86;118.99
67358;HTU21D;54240;51.096;5.878;2023-02-28T04:32:13;-0.89;118.99
67358;HTU21D;54240;51.096;5.878;2023-02-28T04:34:39;-0.90;118.99
67358;HTU21D;54240;51.096;5.878;2023-02-28T04:37:05;-0.93;118.99
67358;HTU21D;54240;51.096;5.878;2023-02-28T04:39:35;-0.96;118.99
67358;HTU21D;54240;51.096;5.878;2023-02-28T04:42:01;-0.97;118.99
67358;HTU21D;54240;51.096;5.878;2023-02-28T04:44:27;-1.01;118.99
67358;HTU21D;54240;51.096;5.878;2023-02-28T04:46:53;-1.01;118.99
67358;HTU21D;54240;51.096;5.878;2023-02-28T04:49:19;-1.02;118.99
67358;HTU21D;54240;51.096;5.878;2023-02-28T04:51:45;-1.04;118.99
67358;HTU21D;54240;51.096;5.878;2023-02-28T04:54:11;-1.04;118.99
67358;HTU21D;54240;51.096;5.878;2023-02-28T04:56:37;-1.01;118.99
67358;HTU21D;54240;51.096;5.878;2023-02-28T04:59:03;-1.02;118.99
67358;HTU21D;54240;51.096;5.878;2023-02-28T05:01:32;-1.00;118.99
67358;HTU21D;54240;51.096;5.878;2023-02-28T05:04:00;-0.99;118.99
67358;HTU21D;54240;51.096;5.878;2023-02-28T05:06:28;-0.99;118.99
67358;HTU21D;54240;51.096;5.878;2023-02-28T05:08:54;-1.03;118.99
67358;HTU21D;54240;51.096;5.878;2023-02-28T05:11:26;-0.98;118.99
67358;HTU21D;54240;51.096;5.878;2023-02-28T05:13:55;-0.99;118.99
67358;HTU21D;54240;51.096;5.878;2023-02-28T05:16:21;-1.02;118.99
67358;HTU21D;54240;51.096;5.878;2023-02-28T05:18:47;-1.04;118.99
67358;HTU21D;54240;51.096;5.878;2023-02-28T05:21:35;-1.06;118.99
67358;HTU21D;54240;51.096;5.878;2023-02-28T05:24:07;-1.06;118.99
67358;HTU21D;54240;51.096;5.878;2023-02-28T05:26:36;-1.04;118.99
67358;HTU21D;54240;51.096;5.878;2023-02-28T05:29:02;-1.04;118.99
67358;HTU21D;54240;51.096;5.878;2023-02-28T05:31:28;-1.03;118.99
67358;HTU21D;54240;51.096;5.878;2023-02-28T05:33:54;-0.99;118.99
67358;HTU21D;54240;51.096;5.878;2023-02-28T05:36:20;-0.97;118.99
67358;HTU21D;54240;51.096;5.878;2023-02-28T05:38:48;-1.03;118.99
67358;HTU21D;54240;51.096;5.878;2023-02-28T05:41:14;-0.97;118.99
67358;HTU21D;54240;51.096;5.878;2023-02-28T05:43:40;-0.98;118.99
67358;HTU21D;54240;51.096;5.878;2023-02-28T05:46:09;-0.94;118.99
67358;HTU21D;54240;51.096;5.878;2023-02-28T05:48:37;-0.89;118.99
67358;HTU21D;54240;51.096;5.878;2023-02-28T05:51:04;-0.89;118.99
67358;HTU21D;54240;51.096;5.878;2023-02-28T05:53:31;-0.94;118.99
67358;HTU21D;54240;51.096;5.878;2023-02-28T05:55:57;-0.93;118.99
67358;HTU21D;54240;51.096;5.878;2023-02-28T05:58:23;-0.98;118.99
67358;HTU21D;54240;51.096;5.878;2023-02-28T06:00:51;-0.95;118.99
67358;HTU21D;54240;51.096;5.878;2023-02-28T06:03:17;-0.93;118.99
67358;HTU21D;54240;51.096;5.878;2023-02-28T06:05:43;-0.84;118.08
67358;HTU21D;54240;51.096;5.878;2023-02-28T06:08:08;-0.84;108.90
67358;HTU21D;54240;51.096;5.878;2023-02-28T06:10:34;-0.87;103.14
67358;HTU21D;54240;51.096;5.878;2023-02-28T06:13:01;-0.87;105.25
67358;HTU21D;54240;51.096;5.878;2023-02-28T06:15:31;-0.84;102.10
67358;HTU21D;54240;51.096;5.878;2023-02-28T06:17:58;-0.82;98.55
67358;HTU21D;54240;51.096;5.878;2023-02-28T06:20:26;-0.86;93.74
67358;HTU21D;54240;51.096;5.878;2023-02-28T06:22:57;-0.85;89.09
67358;HTU21D;54240;51.096;5.878;2023-02-28T06:25:25;-0.86;91.62
67358;HTU21D;54240;51.096;5.878;2023-02-28T06:27:52;-0.84;87.49
67358;HTU21D;54240;51.096;5.878;2023-02-28T06:30:18;-0.84;80.24
67358;HTU21D;54240;51.096;5.878;2023-02-28T06:32:44;-0.85;80.88
67358;HTU21D;54240;51.096;5.878;2023-02-28T06:35:09;-0.89;78.56
67358;HTU21D;54240;51.096;5.878;2023-02-28T06:37:35;-0.86;77.42
67358;HTU21D;54240;51.096;5.878;2023-02-28T06:40:01;-0.93;82.05
67358;HTU21D;54240;51.096;5.878;2023-02-28T06:42:28;-0.94;81.13
67358;HTU21D;54240;51.096;5.878;2023-02-28T06:44:56;-0.96;84.19
67358;HTU21D;54240;51.096;5.878;2023-02-28T06:47:22;-0.89;78.79
67358;HTU21D;54240;51.096;5.878;2023-02-28T06:49:48;-0.91;79.33
67358;HTU21D;54240;51.096;5.878;2023-02-28T06:52:14;-0.90;76.82
67358;HTU21D;54240;51.096;5.878;2023-02-28T06:54:40;-0.90;80.69
67358;HTU21D;54240;51.096;5.878;2023-02-28T06:57:06;-0.95;87.99
67358;HTU21D;54240;51.096;5.878;2023-02-28T06:59:32;-0.91;94.40
67358;HTU21D;54240;51.096;5.878;2023-02-28T07:01:58;-0.84;89.05
67358;HTU21D;54240;51.096;5.878;2023-02-28T07:04:24;-0.80;85.53
67358;HTU21D;54240;51.096;5.878;2023-02-28T07:06:50;-0.80;90.86
67358;HTU21D;54240;51.096;5.878;2023-02-28T07:09:16;-0.73;85.90
67358;HTU21D;54240;51.096;5.878;2023-02-28T07:11:42;-0.65;80.62
67358;HTU21D;54240;51.096;5.878;2023-02-28T07:14:08;-0.59;75.13
67358;HTU21D;54240;51.096;5.878;2023-02-28T07:16:35;-0.57;80.94
67358;HTU21D;54240;51.096;5.878;2023-02-28T07:19:01;-0.52;76.66
67358;HTU21D;54240;51.096;5.878;2023-02-28T07:21:26;-0.40;67.80
67358;HTU21D;54240;51.096;5.878;2023-02-28T07:23:53;-0.24;67.59
67358;HTU21D;54240;51.096;5.878;2023-02-28T07:26:20;0.04;59.03
67358;HTU21D;54240;51.096;5.878;2023-02-28T07:28:47;0.34;34.20
67358;HTU21D;54240;51.096;5.878;2023-02-28T07:31:14;0.64;10.82
67358;HTU21D;54240;51.096;5.878;2023-02-28T07:33:41;0.76;-6.00
67358;HTU21D;54240;51.096;5.878;2023-02-28T07:36:11;0.99;-6.00
67358;HTU21D;54240;51.096;5.878;2023-02-28T07:38:45;1.28;-6.00
67358;HTU21D;54240;51.096;5.878;2023-02-28T07:41:14;1.40;-6.00
67358;HTU21D;54240;51.096;5.878;2023-02-28T07:43:41;1.55;-6.00
67358;HTU21D;54240;51.096;5.878;2023-02-28T07:46:10;1.66;-6.00
67358;HTU21D;54240;51.096;5.878;2023-02-28T07:48:36;1.80;-6.00
67358;HTU21D;54240;51.096;5.878;2023-02-28T07:51:02;1.78;-6.00
67358;HTU21D;54240;51.096;5.878;2023-02-28T07:53:29;1.79;-6.00
67358;HTU21D;54240;51.096;5.878;2023-02-28T07:56:00;1.97;-6.00
67358;HTU21D;54240;51.096;5.878;2023-02-28T07:58:27;2.13;-6.00
67358;HTU21D;54240;51.096;5.878;2023-02-28T08:00:53;2.28;-6.00
67358;HTU21D;54240;51.096;5.878;2023-02-28T08:03:22;2.55;-6.00
67358;HTU21D;54240;51.096;5.878;2023-02-28T08:05:48;2.60;-6.00
67358;HTU21D;54240;51.096;5.878;2023-02-28T08:08:16;2.87;-6.00
67358;HTU21D;54240;51.096;5.878;2023-02-28T08:10:42;3.05;-6.00
67358;HTU21D;54240;51.096;5.878;2023-02-28T08:13:08;3.18;-6.00
67358;HTU21D;54240;51.096;5.878;2023-02-28T08:15:34;3.15;-6.00
67358;HTU21D;54240;51.096;5.878;2023-02-28T08:18:00;3.28;-6.00
67358;HTU21D;54240;51.096;5.878;2023-02-28T08:20:26;3.11;-6.00
67358;HTU21D;54240;51.096;5.878;2023-02-28T08:22:52;3.44;-6.00
67358;HTU21D;54240;51.096;5.878;2023-02-28T08:25:19;3.45;-6.00
67358;HTU21D;54240;51.096;5.878;2023-02-28T08:27:45;3.65;-6.00
67358;HTU21D;54240;51.096;5.878;2023-02-28T08:30:13;4.02;-6.00
67358;HTU21D;54240;51.096;5.878;2023-02-28T08:32:40;4.32;-6.00
67358;HTU21D;54240;51.096;5.878;2023-02-28T08:35:06;4.06;-6.00
67358;HTU21D;54240;51.096;5.878;2023-02-28T08:37:32;4.06;-6.00
67358;HTU21D;54240;51.096;5.878;2023-02-28T08:39:58;4.02;-6.00
67358;HTU21D;54240;51.096;5.878;2023-02-28T08:42:24;4.29;-6.00
67358;HTU21D;54240;51.096;5.878;2023-02-28T08:44:50;3.58;-6.00
67358;HTU21D;54240;51.096;5.878;2023-02-28T08:47:16;3.97;-6.00
67358;HTU21D;54240;51.096;5.878;2023-02-28T08:49:42;4.64;-6.00
67358;HTU21D;54240;51.096;5.878;2023-02-28T08:52:08;4.60;-6.00
67358;HTU21D;54240;51.096;5.878;2023-02-28T08:54:35;4.59;-6.00
67358;HTU21D;54240;51.096;5.878;2023-02-28T08:57:02;5.16;-6.00
67358;HTU21D;54240;51.096;5.878;2023-02-28T08:59:28;5.16;-6.00
67358;HTU21D;54240;51.096;5.878;2023-02-28T09:01:54;5.80;-6.00
67358;HTU21D;54240;51.096;5.878;2023-02-28T09:04:20;5.93;-6.00
67358;HTU21D;54240;51.096;5.878;2023-02-28T09:06:46;6.51;-6.00
67358;HTU21D;54240;51.096;5.878;2023-02-28T09:09:15;6.20;-6.00
67358;HTU21D;54240;51.096;5.878;2023-02-28T09:11:41;5.63;-6.00
67358;HTU21D;54240;51.096;5.878;2023-02-28T09:14:07;5.92;-6.00
67358;HTU21D;54240;51.096;5.878;2023-02-28T09:16:33;5.40;-6.00
67358;HTU21D;54240;51.096;5.878;2023-02-28T09:19:00;6.12;-6.00
67358;HTU21D;54240;51.096;5.878;2023-02-28T09:21:26;6.80;-6.00
67358;HTU21D;54240;51.096;5.878;2023-02-28T09:23:51;6.70;-6.00
67358;HTU21D;54240;51.096;5.878;2023-02-28T09:26:26;6.87;-6.00
67358;HTU21D;54240;51.096;5.878;2023-02-28T09:28:53;6.74;-6.00
67358;HTU21D;54240;51.096;5.878;2023-02-28T09:31:22;6.97;-6.00
67358;HTU21D;54240;51.096;5.878;2023-02-28T09:33:50;7.49;-6.00
67358;HTU21D;54240;51.096;5.878;2023-02-28T09:36:17;7.46;-6.00
67358;HTU21D;54240;51.096;5.878;2023-02-28T09:38:44;8.07;-6.00
67358;HTU21D;54240;51.096;5.878;2023-02-28T09:41:40;8.47;-6.00
67358;HTU21D;54240;51.096;5.878;2023-02-28T09:44:40;6.82;-6.00
67358;HTU21D;54240;51.096;5.878;2023-02-28T09:50:08;6.69;-6.00
67358;HTU21D;54240;51.096;5.878;2023-02-28T09:52:37;7.53;-6.00
67358;HTU21D;54240;51.096;5.878;2023-02-28T09:55:39;7.16;-6.00
67358;HTU21D;54240;51.096;5.878;2023-02-28T10:06:20;8.21;-6.00
67358;HTU21D;54240;51.096;5.878;2023-02-28T10:11:25;9.03;-6.00
67358;HTU21D;54240;51.096;5.878;2023-02-28T10:13:58;8.37;-6.00
67358;HTU21D;54240;51.096;5.878;2023-02-28T10:16:55;8.59;-6.00
67358;HTU21D;54240;51.096;5.878;2023-02-28T10:19:34;8.36;-6.00
67358;HTU21D;54240;51.096;5.878;2023-02-28T10:22:16;8.64;-6.00
67358;HTU21D;54240;51.096;5.878;2023-02-28T10:24:52;7.73;-6.00
67358;HTU21D;54240;51.096;5.878;2023-02-28T10:27:22;7.31;-6.00
67358;HTU21D;54240;51.096;5.878;2023-02-28T10:29:54;7.29;-6.00
67358;HTU21D;54240;51.096;5.878;2023-02-28T10:32:27;8.00;-6.00
67358;HTU21D;54240;51.096;5.878;2023-02-28T10:37:33;9.16;-6.00
67358;HTU21D;54240;51.096;5.878;2023-02-28T10:40:05;9.30;-6.00
67358;HTU21D;54240;51.096;5.878;2023-02-28T10:42:32;9.74;-6.00
67358;HTU21D;54240;51.096;5.878;2023-02-28T10:45:14;9.05;-6.00
67358;HTU21D;54240;51.096;5.878;2023-02-28T10:47:53;8.06;-6.00
67358;HTU21D;54240;51.096;5.878;2023-02-28T10:50:30;8.05;-6.00
67358;HTU21D;54240;51.096;5.878;2023-02-28T11:01:39;8.32;-6.00
67358;HTU21D;54240;51.096;5.878;2023-02-28T11:06:58;9.01;-6.00
67358;HTU21D;54240;51.096;5.878;2023-02-28T11:09:37;9.48;-6.00
67358;HTU21D;54240;51.096;5.878;2023-02-28T11:12:10;9.36;-6.00
67358;HTU21D;54240;51.096;5.878;2023-02-28T11:14:50;9.08;-6.00
67358;HTU21D;54240;51.096;5.878;2023-02-28T11:17:23;9.25;-6.00
67358;HTU21D;54240;51.096;5.878;2023-02-28T11:20:02;9.52;-6.00
67358;HTU21D;54240;51.096;5.878;2023-02-28T11:22:34;9.79;-6.00
67358;HTU21D;54240;51.096;5.878;2023-02-28T11:25:26;10.59;-6.00
67358;HTU21D;54240;51.096;5.878;2023-02-28T11:27:55;9.86;-6.00
67358;HTU21D;54240;51.096;5.878;2023-02-28T11:32:55;9.52;-6.00
67358;HTU21D;54240;51.096;5.878;2023-02-28T11:35:34;9.37;-6.00
67358;HTU21D;54240;51.096;5.878;2023-02-28T11:38:02;10.00;-6.00
67358;HTU21D;54240;51.096;5.878;2023-02-28T11:40:43;10.88;-6.00
67358;HTU21D;54240;51.096;5.878;2023-02-28T11:46:35;11.52;-6.00
67358;HTU21D;54240;51.096;5.878;2023-02-28T11:58:05;11.71;-6.00
67358;HTU21D;54240;51.096;5.878;2023-02-28T12:13:49;11.34;-6.00
67358;HTU21D;54240;51.096;5.878;2023-02-28T12:19:19;13.15;-6.00
67358;HTU21D;54240;51.096;5.878;2023-02-28T12:27:20;15.01;-6.00
67358;HTU21D;54240;51.096;5.878;2023-02-28T12:29:58;15.03;-6.00
67358;HTU21D;54240;51.096;5.878;2023-02-28T12:32:37;13.71;-6.00
67358;HTU21D;54240;51.096;5.878;2023-02-28T12:35:18;10.83;-6.00
67358;HTU21D;54240;51.096;5.878;2023-02-28T12:38:12;9.09;-6.00
67358;HTU21D;54240;51.096;5.878;2023-02-28T12:41:31;7.85;-6.00
67358;HTU21D;54240;51.096;5.878;2023-02-28T12:44:00;6.41;-6.00
67358;HTU21D;54240;51.096;5.878;2023-02-28T12:46:54;5.95;-6.00
67358;HTU21D;54240;51.096;5.878;2023-02-28T12:49:29;6.49;-6.00
67358;HTU21D;54240;51.096;5.878;2023-02-28T12:58:30;5.42;-6.00
67358;HTU21D;54240;51.096;5.878;2023-02-28T13:04:05;5.94;-6.00
67358;HTU21D;54240;51.096;5.878;2023-02-28T13:09:38;6.70;-6.00
67358;HTU21D;54240;51.096;5.878;2023-02-28T13:12:15;7.02;-6.00
67358;HTU21D;54240;51.096;5.878;2023-02-28T13:14:43;7.17;-6.00
67358;HTU21D;54240;51.096;5.878;2023-02-28T13:19:39;7.92;-6.00
67358;HTU21D;54240;51.096;5.878;2023-02-28T13:22:20;8.07;-6.00
67358;HTU21D;54240;51.096;5.878;2023-02-28T13:24:50;8.38;-6.00
67358;HTU21D;54240;51.096;5.878;2023-02-28T13:27:23;8.47;-6.00
67358;HTU21D;54240;51.096;5.878;2023-02-28T13:29:52;8.65;-6.00
67358;HTU21D;54240;51.096;5.878;2023-02-28T13:39:58;8.76;-6.00
67358;HTU21D;54240;51.096;5.878;2023-02-28T13:47:52;9.06;-6.00
67358;HTU21D;54240;51.096;5.878;2023-02-28T13:58:46;8.93;-6.00
67358;HTU21D;54240;51.096;5.878;2023-02-28T14:07:29;8.92;-6.00
67358;HTU21D;54240;51.096;5.878;2023-02-28T14:10:03;8.60;-6.00
67358;HTU21D;54240;51.096;5.878;2023-02-28T14:12:51;8.03;-6.00
67358;HTU21D;54240;51.096;5.878;2023-02-28T14:18:10;7.53;-6.00
67358;HTU21D;54240;51.096;5.878;2023-02-28T14:20:40;7.78;-6.00
67358;HTU21D;54240;51.096;5.878;2023-02-28T14:23:34;7.89;-6.00
67358;HTU21D;54240;51.096;5.878;2023-02-28T14:31:37;8.14;-6.00
67358;HTU21D;54240;51.096;5.878;2023-02-28T14:37:04;7.96;-6.00
67358;HTU21D;54240;51.096;5.878;2023-02-28T14:39:31;8.22;-6.00
67358;HTU21D;54240;51.096;5.878;2023-02-28T14:41:58;7.90;-6.00
67358;HTU21D;54240;51.096;5.878;2023-02-28T14:44:31;7.72;-6.00
67358;HTU21D;54240;51.096;5.878;2023-02-28T14:47:00;7.85;-6.00
67358;HTU21D;54240;51.096;5.878;2023-02-28T14:49:44;7.85;-6.00
67358;HTU21D;54240;51.096;5.878;2023-02-28T14:52:31;7.71;-6.00
67358;HTU21D;54240;51.096;5.878;2023-02-28T14:55:15;7.09;-6.00
67358;HTU21D;54240;51.096;5.878;2023-02-28T14:57:52;7.52;-6.00
67358;HTU21D;54240;51.096;5.878;2023-02-28T15:00:28;7.92;-6.00
67358;HTU21D;54240;51.096;5.878;2023-02-28T15:02:56;8.02;-6.00
67358;HTU21D;54240;51.096;5.878;2023-02-28T15:05:33;8.13;-6.00
67358;HTU21D;54240;51.096;5.878;2023-02-28T15:08:10;8.28;-6.00
67358;HTU21D;54240;51.096;5.878;2023-02-28T15:10:39;8.16;-6.00
67358;HTU21D;54240;51.096;5.878;2023-02-28T15:13:10;8.16;-6.00
67358;HTU21D;54240;51.096;5.878;2023-02-28T15:15:45;8.18;-6.00
67358;HTU21D;54240;51.096;5.878;2023-02-28T15:21:13;8.08;-6.00
67358;HTU21D;54240;51.096;5.878;2023-02-28T15:23:45;7.56;-6.00
67358;HTU21D;54240;51.096;5.878;2023-02-28T15:26:24;7.54;-6.00
67358;HTU21D;54240;51.096;5.878;2023-02-28T15:29:00;7.63;-6.00
67358;HTU21D;54240;51.096;5.878;2023-02-28T15:31:31;7.53;-6.00
67358;HTU21D;54240;51.096;5.878;2023-02-28T15:34:03;7.17;-6.00
67358;HTU21D;54240;51.096;5.878;2023-02-28T15:36:32;7.22;-6.00
67358;HTU21D;54240;51.096;5.878;2023-02-28T15:39:00;7.32;-6.00
67358;HTU21D;54240;51.096;5.878;2023-02-28T15:41:29;7.48;-6.00
67358;HTU21D;54240;51.096;5.878;2023-02-28T15:44:16;7.26;-6.00
67358;HTU21D;54240;51.096;5.878;2023-02-28T15:49:23;7.37;-6.00
67358;HTU21D;54240;51.096;5.878;2023-02-28T15:51:53;7.29;-6.00
67358;HTU21D;54240;51.096;5.878;2023-02-28T15:54:24;7.01;-6.00
67358;HTU21D;54240;51.096;5.878;2023-02-28T15:56:56;6.80;-6.00
67358;HTU21D;54240;51.096;5.878;2023-02-28T15:59:30;6.83;-6.00
67358;HTU21D;54240;51.096;5.878;2023-02-28T16:02:04;7.09;-6.00
67358;HTU21D;54240;51.096;5.878;2023-02-28T16:04:37;7.14;-6.00
67358;HTU21D;54240;51.096;5.878;2023-02-28T16:07:19;7.23;-6.00
67358;HTU21D;54240;51.096;5.878;2023-02-28T16:09:45;7.09;-6.00
67358;HTU21D;54240;51.096;5.878;2023-02-28T16:12:12;7.09;-6.00
67358;HTU21D;54240;51.096;5.878;2023-02-28T16:14:39;7.10;-6.00
67358;HTU21D;54240;51.096;5.878;2023-02-28T16:17:13;7.12;-6.00
67358;HTU21D;54240;51.096;5.878;2023-02-28T16:19:42;7.04;-6.00
67358;HTU21D;54240;51.096;5.878;2023-02-28T16:22:09;6.90;-6.00
67358;HTU21D;54240;51.096;5.878;2023-02-28T16:24:35;6.89;-6.00
67358;HTU21D;54240;51.096;5.878;2023-02-28T16:27:01;6.54;-6.00
67358;HTU21D;54240;51.096;5.878;2023-02-28T16:29:31;6.35;-6.00
67358;HTU21D;54240;51.096;5.878;2023-02-28T16:32:00;6.54;-6.00
67358;HTU21D;54240;51.096;5.878;2023-02-28T16:34:26;6.38;-6.00
67358;HTU21D;54240;51.096;5.878;2023-02-28T16:36:52;6.42;-6.00
67358;HTU21D;54240;51.096;5.878;2023-02-28T16:39:18;6.41;-6.00
67358;HTU21D;54240;51.096;5.878;2023-02-28T16:41:50;6.40;-6.00
67358;HTU21D;54240;51.096;5.878;2023-02-28T16:44:32;6.36;-6.00
67358;HTU21D;54240;51.096;5.878;2023-02-28T16:47:03;6.23;-6.00
67358;HTU21D;54240;51.096;5.878;2023-02-28T16:49:30;6.19;-6.00
67358;HTU21D;54240;51.096;5.878;2023-02-28T16:51:56;6.01;-6.00
67358;HTU21D;54240;51.096;5.878;2023-02-28T16:54:22;5.93;-6.00
67358;HTU21D;54240;51.096;5.878;2023-02-28T16:56:49;5.84;-6.00
67358;HTU21D;54240;51.096;5.878;2023-02-28T16:59:21;5.75;-6.00
67358;HTU21D;54240;51.096;5.878;2023-02-28T17:01:47;5.63;-6.00
67358;HTU21D;54240;51.096;5.878;2023-02-28T17:04:13;5.59;-6.00
67358;HTU21D;54240;51.096;5.878;2023-02-28T17:06:39;5.39;-6.00
67358;HTU21D;54240;51.096;5.878;2023-02-28T17:09:08;5.31;-6.00
67358;HTU21D;54240;51.096;5.878;2023-02-28T17:11:39;5.18;-6.00
67358;HTU21D;54240;51.096;5.878;2023-02-28T17:14:05;5.26;-6.00
67358;HTU21D;54240;51.096;5.878;2023-02-28T17:16:33;5.30;-6.00
67358;HTU21D;54240;51.096;5.878;2023-02-28T17:19:03;5.30;-6.00
67358;HTU21D;54240;51.096;5.878;2023-02-28T17:21:31;5.27;-6.00
67358;HTU21D;54240;51.096;5.878;2023-02-28T17:23:59;5.20;-6.00
67358;HTU21D;54240;51.096;5.878;2023-02-28T17:26:26;5.17;-6.00
67358;HTU21D;54240;51.096;5.878;2023-02-28T17:28:55;5.07;-6.00
67358;HTU21D;54240;51.096;5.878;2023-02-28T17:31:26;4.96;-6.00
67358;HTU21D;54240;51.096;5.878;2023-02-28T17:33:53;4.96;-6.00
67358;HTU21D;54240;51.096;5.878;2023-02-28T17:36:25;4.81;-6.00
67358;HTU21D;54240;51.096;5.878;2023-02-28T17:38:54;4.76;-6.00
67358;HTU21D;54240;51.096;5.878;2023-02-28T17:41:21;4.76;-6.00
67358;HTU21D;54240;51.096;5.878;2023-02-28T17:43:48;4.74;-6.00
67358;HTU21D;54240;51.096;5.878;2023-02-28T17:46:19;4.63;-6.00
67358;HTU21D;54240;51.096;5.878;2023-02-28T17:48:47;4.65;-6.00
67358;HTU21D;54240;51.096;5.878;2023-02-28T17:51:14;4.65;-6.00
67358;HTU21D;54240;51.096;5.878;2023-02-28T17:53:40;4.53;-6.00
67358;HTU21D;54240;51.096;5.878;2023-02-28T17:56:19;4.52;-6.00
67358;HTU21D;54240;51.096;5.878;2023-02-28T17:58:45;4.44;-6.00
67358;HTU21D;54240;51.096;5.878;2023-02-28T18:01:11;4.44;-6.00
67358;HTU21D;54240;51.096;5.878;2023-02-28T18:03:38;4.35;-6.00
67358;HTU21D;54240;51.096;5.878;2023-02-28T18:06:05;4.30;-6.00
67358;HTU21D;54240;51.096;5.878;2023-02-28T18:08:32;4.27;-6.00
67358;HTU21D;54240;51.096;5.878;2023-02-28T18:11:00;4.24;-6.00
67358;HTU21D;54240;51.096;5.878;2023-02-28T18:13:26;4.15;-6.00
67358;HTU21D;54240;51.096;5.878;2023-02-28T18:15:54;4.15;-6.00
67358;HTU21D;54240;51.096;5.878;2023-02-28T18:18:19;4.10;-6.00
67358;HTU21D;54240;51.096;5.878;2023-02-28T18:20:45;4.00;-6.00